createdAt,value
2019-05-18T00:00:40.608Z,2.07
2019-05-18T00:03:09.906Z,2.83
2019-05-18T00:05:41.584Z,3.67
2019-05-18T00:08:13.998Z,5.37
2019-05-18T00:10:43.366Z,3.63
2019-05-18T00:13:13.030Z,3.27
2019-05-18T00:15:42.793Z,3.63
2019-05-18T00:18:12.115Z,3.43
2019-05-18T00:20:41.441Z,4.23
2019-05-18T00:23:10.736Z,3.27
2019-05-18T00:25:40.056Z,2.37
2019-05-18T00:28:09.364Z,2.60
2019-05-18T00:30:39.148Z,2.33
2019-05-18T00:33:08.543Z,3.40
2019-05-18T00:35:44.254Z,3.03
2019-05-18T00:38:16.219Z,3.07
2019-05-18T00:40:46.434Z,2.67
2019-05-18T00:43:16.092Z,3.23
2019-05-18T00:45:47.261Z,3.37
2019-05-18T00:48:17.167Z,3.97
2019-05-18T00:50:46.591Z,3.47
2019-05-18T00:53:16.635Z,3.27
2019-05-18T00:55:45.931Z,3.63
2019-05-18T00:58:15.773Z,3.03
2019-05-18T01:00:45.534Z,3.10
2019-05-18T01:03:14.947Z,3.67
2019-05-18T01:05:44.976Z,2.90
2019-05-18T01:08:16.769Z,5.87
2019-05-18T01:10:46.423Z,5.37
2019-05-18T01:13:16.018Z,5.10
2019-05-18T01:15:47.539Z,5.87
2019-05-18T01:18:17.237Z,4.57
2019-05-18T01:20:47.038Z,4.17
2019-05-18T01:23:16.595Z,4.33
2019-05-18T01:25:45.953Z,3.73
2019-05-18T01:28:16.922Z,4.23
2019-05-18T01:30:47.583Z,3.77
2019-05-18T01:33:19.336Z,3.90
2019-05-18T01:35:49.782Z,3.87
2019-05-18T01:38:20.548Z,3.73
2019-05-18T01:40:52.313Z,3.80
2019-05-18T01:43:29.098Z,4.00
2019-05-18T01:46:04.257Z,4.07
2019-05-18T01:48:37.328Z,4.37
2019-05-18T01:51:09.139Z,4.03
2019-05-18T01:53:47.297Z,3.70
2019-05-18T01:56:17.515Z,3.57
2019-05-18T01:58:48.222Z,4.40
2019-05-18T02:01:22.184Z,6.97
2019-05-18T02:03:53.552Z,5.67
2019-05-18T02:06:25.443Z,8.80
2019-05-18T02:08:55.776Z,6.77
2019-05-18T02:11:29.483Z,5.80
2019-05-18T02:14:00.598Z,8.43
2019-05-18T02:16:31.554Z,6.47
2019-05-18T02:19:01.875Z,5.87
2019-05-18T02:21:33.115Z,4.87
2019-05-18T02:24:03.538Z,3.87
2019-05-18T02:26:34.574Z,4.13
2019-05-18T02:29:05.783Z,4.00
2019-05-18T02:31:37.159Z,3.60
2019-05-18T02:34:10.224Z,3.70
2019-05-18T02:36:42.248Z,3.93
2019-05-18T02:39:15.237Z,3.97
2019-05-18T02:41:49.259Z,3.13
2019-05-18T02:44:23.496Z,3.33
2019-05-18T02:46:55.547Z,3.70
2019-05-18T02:49:29.134Z,3.03
2019-05-18T02:52:08.530Z,3.50
2019-05-18T02:54:39.243Z,3.10
2019-05-18T02:57:10.340Z,3.27
2019-05-18T02:59:41.250Z,3.10
2019-05-18T03:02:12.151Z,2.70
2019-05-18T03:04:44.083Z,2.97
2019-05-18T03:07:16.230Z,3.17
2019-05-18T03:09:47.251Z,3.03
2019-05-18T03:12:16.636Z,3.00
2019-05-18T03:14:45.935Z,3.07
2019-05-18T03:17:17.223Z,3.67
2019-05-18T03:19:46.991Z,3.67
2019-05-18T03:22:16.639Z,4.00
2019-05-18T03:24:46.620Z,4.53
2019-05-18T03:27:15.920Z,4.70
2019-05-18T03:29:46.284Z,3.43
2019-05-18T03:32:16.300Z,4.70
2019-05-18T03:34:50.790Z,3.40
2019-05-18T03:37:23.682Z,3.80
2019-05-18T03:39:56.924Z,3.80
2019-05-18T03:42:29.215Z,4.27
2019-05-18T03:45:03.939Z,4.20
2019-05-18T03:47:37.014Z,3.80
2019-05-18T03:50:09.444Z,4.40
2019-05-18T03:52:42.755Z,3.97
2019-05-18T03:55:13.639Z,4.07
2019-05-18T03:57:44.034Z,3.80
2019-05-18T04:00:14.990Z,3.87
2019-05-18T04:02:46.320Z,3.80
2019-05-18T04:05:16.734Z,3.33
2019-05-18T04:07:50.788Z,3.90
2019-05-18T04:10:32.851Z,4.93
2019-05-18T04:13:05.409Z,5.20
2019-05-18T04:15:36.375Z,5.70
2019-05-18T04:18:06.565Z,5.73
2019-05-18T04:20:38.201Z,5.70
2019-05-18T04:23:09.890Z,5.83
2019-05-18T04:25:45.749Z,7.73
2019-05-18T04:28:20.070Z,7.83
2019-05-18T04:30:53.041Z,7.37
2019-05-18T04:33:26.108Z,7.90
2019-05-18T04:36:00.473Z,8.63
2019-05-18T04:38:34.069Z,7.80
2019-05-18T04:41:07.390Z,8.50
2019-05-18T04:43:42.646Z,8.40
2019-05-18T04:46:15.134Z,9.07
2019-05-18T04:48:48.176Z,9.07
2019-05-18T04:51:21.208Z,8.27
2019-05-18T04:53:53.750Z,8.90
2019-05-18T04:56:24.243Z,8.57
2019-05-18T04:58:57.223Z,8.67
2019-05-18T05:01:27.908Z,8.00
2019-05-18T05:04:00.541Z,8.50
2019-05-18T05:06:31.325Z,8.03
2019-05-18T05:09:01.097Z,9.03
2019-05-18T05:11:31.020Z,8.60
2019-05-18T05:14:00.702Z,7.00
2019-05-18T05:16:30.446Z,8.73
2019-05-18T05:19:08.690Z,8.43
2019-05-18T05:21:44.500Z,8.37
2019-05-18T05:24:17.457Z,8.67
2019-05-18T05:26:53.040Z,7.87
2019-05-18T05:29:24.824Z,8.03
2019-05-18T05:31:59.441Z,7.50
2019-05-18T05:34:29.986Z,7.00
2019-05-18T05:37:00.871Z,7.23
2019-05-18T05:39:31.995Z,7.47
2019-05-18T05:42:02.475Z,6.33
2019-05-18T05:44:36.008Z,6.10
2019-05-18T05:47:08.082Z,6.97
2019-05-18T05:49:42.323Z,6.67
2019-05-18T05:52:17.606Z,6.23
2019-05-18T05:54:51.103Z,5.77
2019-05-18T05:57:24.849Z,6.07
2019-05-18T05:59:58.941Z,6.30
2019-05-18T06:02:32.985Z,5.67
2019-05-18T06:05:05.889Z,7.00
2019-05-18T06:07:36.998Z,6.03
2019-05-18T06:10:06.792Z,6.07
2019-05-18T06:12:36.177Z,5.40
2019-05-18T06:15:05.834Z,4.83
2019-05-18T06:17:35.492Z,5.63
2019-05-18T06:20:05.503Z,5.83
2019-05-18T06:22:38.152Z,4.93
2019-05-18T06:25:08.116Z,5.00
2019-05-18T06:27:37.731Z,4.90
2019-05-18T06:30:07.773Z,5.33
2019-05-18T06:32:37.409Z,4.93
2019-05-18T06:35:07.956Z,4.67
2019-05-18T06:37:38.944Z,4.77
2019-05-18T06:40:10.540Z,4.23
2019-05-18T06:42:41.672Z,4.13
2019-05-18T06:45:11.084Z,4.30
2019-05-18T06:47:50.759Z,4.90
2019-05-18T06:50:29.780Z,3.80
2019-05-18T06:53:05.104Z,3.77
2019-05-18T06:55:39.056Z,3.97
2019-05-18T06:58:14.032Z,4.10
2019-05-18T07:00:45.815Z,4.53
2019-05-18T07:03:20.164Z,4.10
2019-05-18T07:05:52.230Z,4.33
2019-05-18T07:08:25.854Z,5.07
2019-05-18T07:11:00.236Z,4.67
2019-05-18T07:13:30.088Z,4.20
2019-05-18T07:16:01.995Z,4.70
2019-05-18T07:18:31.419Z,4.43
2019-05-18T07:21:01.130Z,5.10
2019-05-18T07:23:30.889Z,4.50
2019-05-18T07:26:16.693Z,4.83
2019-05-18T07:28:46.386Z,5.47
2019-05-18T07:31:15.902Z,4.63
2019-05-18T07:33:49.413Z,4.43
2019-05-18T07:36:18.770Z,4.83
2019-05-18T07:38:50.708Z,5.60
2019-05-18T07:41:27.707Z,5.40
2019-05-18T07:44:09.505Z,5.00
2019-05-18T07:46:49.850Z,5.30
2019-05-18T07:49:26.202Z,5.13
2019-05-18T07:51:59.096Z,5.27
2019-05-18T07:54:32.447Z,4.17
2019-05-18T07:57:06.992Z,4.23
2019-05-18T07:59:41.635Z,4.43
2019-05-18T08:02:17.906Z,4.20
2019-05-18T08:04:50.036Z,4.07
2019-05-18T08:07:21.244Z,3.93
2019-05-18T08:09:50.895Z,3.80
2019-05-18T08:12:21.017Z,3.33
2019-05-18T08:14:50.640Z,3.93
2019-05-18T08:17:25.221Z,3.93
2019-05-18T08:19:54.810Z,2.80
2019-05-18T08:22:25.043Z,2.90
2019-05-18T08:25:13.871Z,3.67
2019-05-18T08:27:42.061Z,3.23
2019-05-18T08:33:50.716Z,2.60
2019-05-18T08:36:25.514Z,3.10
2019-05-18T08:38:57.795Z,3.27
2019-05-18T08:41:32.250Z,3.20
2019-05-18T08:44:06.070Z,3.10
2019-05-18T08:46:41.825Z,2.10
2019-05-18T08:50:18.180Z,3.60
2019-05-18T08:53:26.317Z,2.63
2019-05-18T08:56:01.465Z,2.63
2019-05-18T08:59:28.028Z,2.40
2019-05-18T09:02:06.331Z,2.07
2019-05-18T09:05:50.005Z,2.27
2019-05-18T09:08:27.817Z,1.90
2019-05-18T09:11:28.481Z,1.67
2019-05-18T09:14:31.807Z,2.17
2019-05-18T09:17:36.389Z,2.10
2019-05-18T09:20:19.936Z,1.50
2019-05-18T09:23:01.611Z,2.20
2019-05-18T09:30:31.407Z,1.63
2019-05-18T09:37:44.832Z,2.03
2019-05-18T09:44:08.274Z,2.47
2019-05-18T09:47:26.417Z,2.20
2019-05-18T09:50:49.737Z,2.40
2019-05-18T09:53:51.481Z,2.20
2019-05-18T10:00:38.600Z,1.80
2019-05-18T10:06:45.745Z,1.80
2019-05-18T10:16:57.100Z,0.83
2019-05-18T10:27:13.705Z,1.40
2019-05-18T11:01:04.053Z,1.70
2019-05-18T11:11:32.316Z,1.80
2019-05-18T11:26:18.333Z,1.30
2019-05-18T11:51:05.965Z,1.70
2019-05-18T12:16:43.740Z,2.30
2019-05-18T12:34:14.336Z,1.60
2019-05-18T12:37:36.449Z,1.43
2019-05-18T12:42:11.845Z,1.33
2019-05-18T12:49:10.126Z,2.00
2019-05-18T12:52:57.221Z,1.50
2019-05-18T12:56:02.931Z,1.20
2019-05-18T13:03:13.437Z,1.57
2019-05-18T13:06:25.380Z,1.33
2019-05-18T13:16:49.245Z,1.43
2019-05-18T13:20:04.530Z,1.40
2019-05-18T13:23:04.141Z,0.90
2019-05-18T13:25:58.567Z,1.03
2019-05-18T13:29:09.053Z,1.10
2019-05-18T13:31:53.562Z,1.27
2019-05-18T13:35:16.588Z,1.10
2019-05-18T13:38:55.545Z,1.50
2019-05-18T13:49:04.417Z,1.17
2019-05-18T13:51:45.477Z,2.70
2019-05-18T13:54:37.455Z,1.70
2019-05-18T13:57:44.080Z,1.53
2019-05-18T14:00:44.593Z,1.10
2019-05-18T14:03:49.011Z,1.50
2019-05-18T14:06:47.093Z,1.30
2019-05-18T14:09:26.226Z,1.17
2019-05-18T14:12:06.603Z,1.40
2019-05-18T14:14:55.986Z,1.20
2019-05-18T14:17:38.298Z,1.53
2019-05-18T14:20:11.774Z,2.03
2019-05-18T14:22:51.171Z,1.67
2019-05-18T14:25:55.848Z,1.30
2019-05-18T14:28:48.677Z,1.73
2019-05-18T14:31:28.315Z,1.50
2019-05-18T14:34:11.917Z,1.30
2019-05-18T14:36:48.574Z,1.50
2019-05-18T14:39:23.237Z,1.80
2019-05-18T14:41:57.544Z,1.43
2019-05-18T14:44:31.363Z,1.40
2019-05-18T14:47:08.749Z,1.20
2019-05-18T14:52:36.219Z,1.70
2019-05-18T14:55:14.455Z,1.50
2019-05-18T14:58:08.069Z,2.10
2019-05-18T15:00:42.059Z,1.70
2019-05-18T15:03:13.113Z,1.40
2019-05-18T15:05:45.431Z,1.83
2019-05-18T15:08:23.632Z,1.83
2019-05-18T15:11:33.627Z,1.83
2019-05-18T15:14:12.020Z,1.80
2019-05-18T15:16:52.484Z,1.80
2019-05-18T15:19:22.644Z,1.53
2019-05-18T15:22:00.785Z,1.70
2019-05-18T15:24:39.945Z,1.87
2019-05-18T15:27:20.030Z,1.80
2019-05-18T15:30:06.173Z,2.30
2019-05-18T15:32:59.661Z,2.03
2019-05-18T15:35:39.469Z,1.90
2019-05-18T15:38:17.625Z,2.07
2019-05-18T15:41:01.721Z,1.87
2019-05-18T15:43:35.122Z,2.00
2019-05-18T15:46:11.656Z,2.40
2019-05-18T15:48:46.421Z,2.10
2019-05-18T15:51:40.455Z,2.20
2019-05-18T15:54:23.790Z,2.23
2019-05-18T15:57:06.783Z,2.40
2019-05-18T15:59:52.265Z,2.50
2019-05-18T16:02:32.383Z,2.03
2019-05-18T16:05:10.817Z,1.97
2019-05-18T16:07:52.312Z,1.80
2019-05-18T16:10:35.589Z,1.67
2019-05-18T16:13:20.640Z,2.33
2019-05-18T16:16:00.930Z,2.17
2019-05-18T16:18:40.704Z,2.13
2019-05-18T16:21:19.155Z,1.70
2019-05-18T16:24:01.519Z,1.63
2019-05-18T16:26:41.432Z,1.50
2019-05-18T16:29:19.489Z,1.60
2019-05-18T16:31:52.863Z,1.70
2019-05-18T16:34:37.454Z,1.33
2019-05-18T16:37:18.128Z,1.97
2019-05-18T16:39:57.100Z,1.40
2019-05-18T16:42:35.746Z,1.70
2019-05-18T16:45:16.174Z,2.00
2019-05-18T16:48:05.875Z,2.33
2019-05-18T16:50:55.453Z,1.57
2019-05-18T16:53:35.548Z,1.63
2019-05-18T16:56:19.171Z,1.53
2019-05-18T16:59:05.670Z,1.17
2019-05-18T17:01:55.352Z,1.30
2019-05-18T17:04:48.712Z,1.53
2019-05-18T17:07:33.719Z,1.27
2019-05-18T17:10:18.228Z,1.47
2019-05-18T17:12:50.639Z,1.77
2019-05-18T17:15:36.967Z,2.07
2019-05-18T17:18:20.402Z,1.80
2019-05-18T17:21:09.366Z,2.20
2019-05-18T17:23:59.280Z,1.93
2019-05-18T17:26:52.950Z,1.70
2019-05-18T17:29:36.838Z,1.77
2019-05-18T17:32:26.702Z,1.97
2019-05-18T17:35:14.222Z,1.90
2019-05-18T17:37:59.938Z,2.10
2019-05-18T17:41:05.096Z,1.93
2019-05-18T17:44:00.345Z,1.80
2019-05-18T17:46:49.105Z,1.60
2019-05-18T17:49:50.010Z,1.90
2019-05-18T17:52:50.601Z,1.57
2019-05-18T17:55:33.789Z,1.33
2019-05-18T17:58:21.131Z,1.30
2019-05-18T18:01:12.357Z,1.33
2019-05-18T18:04:03.261Z,1.50
2019-05-18T18:07:01.309Z,1.10
2019-05-18T18:09:59.071Z,1.00
2019-05-18T18:12:48.101Z,1.20
2019-05-18T18:15:35.840Z,1.10
2019-05-18T18:18:22.173Z,1.20
2019-05-18T18:21:07.694Z,1.30
2019-05-18T18:23:58.558Z,1.20
2019-05-18T18:26:41.590Z,1.23
2019-05-18T18:29:25.590Z,1.50
2019-05-18T18:32:13.224Z,1.40
2019-05-18T18:34:59.904Z,1.30
2019-05-18T18:37:43.900Z,1.67
2019-05-18T18:40:32.086Z,1.60
2019-05-18T18:43:34.475Z,1.40
2019-05-18T18:46:24.533Z,1.53
2019-05-18T18:49:11.394Z,1.57
2019-05-18T18:52:06.651Z,1.70
2019-05-18T18:55:02.480Z,1.60
2019-05-18T19:04:18.329Z,1.90
2019-05-18T19:07:09.178Z,1.67
2019-05-18T19:10:10.297Z,1.63
2019-05-18T19:13:03.769Z,1.90
2019-05-18T19:16:01.836Z,2.00
2019-05-18T19:18:46.457Z,1.90
2019-05-18T19:21:28.593Z,2.00
2019-05-18T19:24:09.805Z,2.20
2019-05-18T19:26:54.562Z,1.80
2019-05-18T19:29:39.826Z,2.47
2019-05-18T19:32:47.407Z,2.00
2019-05-18T19:39:08.355Z,2.90
2019-05-18T19:42:10.428Z,2.60
2019-05-18T19:44:56.376Z,2.40
2019-05-18T19:47:45.270Z,2.40
2019-05-18T19:50:55.494Z,2.67
2019-05-18T19:53:44.405Z,2.83
2019-05-18T19:56:41.836Z,2.33
2019-05-18T19:59:12.054Z,2.03
2019-05-18T20:01:47.223Z,2.03
2019-05-18T20:04:32.302Z,2.10
2019-05-18T20:07:13.489Z,2.43
2019-05-18T20:09:53.026Z,2.13
2019-05-18T20:12:34.884Z,2.30
2019-05-18T20:15:10.573Z,1.90
2019-05-18T20:17:51.867Z,2.63
2019-05-18T20:20:26.150Z,2.63
2019-05-18T20:23:03.996Z,2.33
2019-05-18T20:25:43.828Z,2.20
2019-05-18T20:28:29.985Z,2.70
2019-05-18T20:31:09.963Z,2.63
2019-05-18T20:33:49.813Z,2.67
2019-05-18T20:36:37.835Z,3.23
2019-05-18T20:39:34.070Z,3.30
2019-05-18T20:42:04.252Z,3.03
2019-05-18T20:48:28.592Z,3.10
2019-05-18T20:51:24.408Z,3.30
2019-05-18T20:54:02.155Z,3.00
2019-05-18T20:57:46.005Z,3.20
2019-05-18T21:01:58.482Z,3.80
2019-05-18T21:04:28.970Z,3.43
2019-05-18T21:07:16.482Z,3.43
2019-05-18T21:13:12.949Z,3.63
2019-05-18T21:24:35.938Z,2.63
2019-05-18T21:35:02.106Z,2.70
2019-05-18T21:37:48.961Z,2.97
2019-05-18T21:41:15.660Z,2.80
2019-05-18T21:51:29.058Z,2.10
2019-05-18T21:57:57.621Z,2.03
2019-05-18T22:01:16.144Z,2.40
2019-05-18T22:04:40.751Z,2.40
2019-05-18T22:07:30.495Z,3.00
2019-05-18T22:10:08.763Z,2.70
2019-05-18T22:12:44.556Z,2.67
2019-05-18T22:15:24.521Z,2.43
2019-05-18T22:18:07.329Z,2.50
2019-05-18T22:20:50.397Z,2.23
2019-05-18T22:23:25.302Z,2.67
2019-05-18T22:26:04.784Z,2.47
2019-05-18T22:28:51.303Z,2.53
2019-05-18T22:31:29.112Z,3.03
2019-05-18T22:34:14.505Z,4.43
2019-05-18T22:37:11.477Z,4.00
2019-05-18T22:39:50.535Z,4.60
2019-05-18T22:42:36.514Z,4.10
2019-05-18T22:45:21.109Z,4.73
2019-05-18T22:48:03.722Z,4.60
2019-05-18T22:51:04.754Z,5.33
2019-05-18T22:53:49.825Z,6.63
2019-05-18T22:56:48.018Z,5.83
2019-05-18T22:59:19.303Z,6.30
2019-05-18T23:05:59.419Z,7.83
2019-05-18T23:08:39.153Z,7.80
2019-05-18T23:11:20.655Z,13.13
2019-05-18T23:14:03.451Z,9.10
2019-05-18T23:16:43.102Z,7.37
2019-05-18T23:19:24.232Z,8.37
2019-05-18T23:22:04.171Z,6.90
2019-05-18T23:24:51.104Z,7.23
2019-05-18T23:27:30.968Z,7.87
2019-05-18T23:30:11.715Z,10.10
2019-05-18T23:36:16.368Z,8.33
2019-05-18T23:39:29.716Z,8.40
2019-05-18T23:42:39.819Z,9.40
2019-05-18T23:45:35.986Z,10.13
2019-05-18T23:48:25.495Z,8.67
2019-05-18T23:51:51.662Z,9.13
2019-05-18T23:54:39.487Z,7.47
2019-05-18T23:57:26.710Z,7.53
